createdAt,value
2018-04-06T00:00:50.790Z,6.00
2018-04-06T00:01:54.661Z,6.03
2018-04-06T00:02:58.487Z,5.20
2018-04-06T00:04:03.154Z,6.10
2018-04-06T00:05:07.094Z,6.12
2018-04-06T00:06:10.985Z,6.37
2018-04-06T00:07:15.314Z,6.65
2018-04-06T00:08:20.009Z,5.62
2018-04-06T00:09:24.140Z,5.32
2018-04-06T00:10:29.014Z,6.05
2018-04-06T00:11:32.922Z,6.20
2018-04-06T00:12:36.865Z,6.30
2018-04-06T00:13:41.507Z,5.97
2018-04-06T00:14:45.748Z,5.32
2018-04-06T00:15:49.781Z,6.03
2018-04-06T00:16:54.521Z,6.40
2018-04-06T00:17:58.912Z,5.60
2018-04-06T00:19:03.032Z,6.20
2018-04-06T00:20:07.047Z,6.10
2018-04-06T00:21:11.052Z,5.28
2018-04-06T00:22:15.100Z,5.80
2018-04-06T00:23:19.929Z,5.75
2018-04-06T00:24:25.116Z,5.32
2018-04-06T00:25:29.130Z,4.90
2018-04-06T00:26:33.027Z,6.20
2018-04-06T00:27:36.931Z,5.12
2018-04-06T00:28:40.790Z,5.10
2018-04-06T00:29:44.721Z,5.40
2018-04-06T00:30:49.591Z,5.35
2018-04-06T00:31:54.092Z,5.30
2018-04-06T00:32:58.163Z,5.78
2018-04-06T00:34:02.355Z,5.35
2018-04-06T00:35:06.417Z,5.53
2018-04-06T00:36:10.833Z,5.53
2018-04-06T00:37:14.809Z,6.32
2018-04-06T00:38:18.762Z,5.97
2018-04-06T00:39:22.787Z,5.43
2018-04-06T00:40:27.586Z,5.70
2018-04-06T00:41:32.685Z,5.57
2018-04-06T00:42:37.569Z,5.10
2018-04-06T00:43:41.592Z,5.47
2018-04-06T00:44:45.771Z,5.90
2018-04-06T00:45:49.744Z,4.72
2018-04-06T00:46:53.792Z,4.90
2018-04-06T00:47:57.929Z,5.20
2018-04-06T00:49:02.590Z,5.30
2018-04-06T00:50:08.264Z,5.62
2018-04-06T00:51:12.380Z,5.60
2018-04-06T00:52:16.418Z,5.70
2018-04-06T00:53:30.142Z,5.60
2018-04-06T00:54:34.457Z,5.47
2018-04-06T00:55:39.280Z,4.90
2018-04-06T00:56:44.166Z,5.25
2018-04-06T00:57:48.074Z,5.28
2018-04-06T00:58:52.090Z,5.00
2018-04-06T00:59:56.869Z,4.95
2018-04-06T01:01:01.282Z,4.80
2018-04-06T01:02:05.213Z,4.35
2018-04-06T01:03:09.888Z,4.73
2018-04-06T01:04:13.722Z,5.32
2018-04-06T01:13:05.704Z,4.60
2018-04-06T01:14:10.539Z,4.68
2018-04-06T01:15:15.063Z,4.30
2018-04-06T01:16:20.577Z,4.57
2018-04-06T01:17:26.210Z,4.22
2018-04-06T01:18:31.568Z,5.53
2018-04-06T01:19:36.648Z,4.72
2018-04-06T01:20:41.389Z,4.43
2018-04-06T01:21:46.215Z,4.80
2018-04-06T01:22:52.265Z,5.07
2018-04-06T01:23:57.419Z,4.70
2018-04-06T01:25:01.936Z,4.80
2018-04-06T01:26:07.556Z,5.20
2018-04-06T01:27:13.252Z,5.18
2018-04-06T01:28:20.187Z,4.82
2018-04-06T01:29:25.297Z,5.40
2018-04-06T01:30:29.825Z,5.47
2018-04-06T01:31:34.933Z,5.28
2018-04-06T01:32:40.033Z,4.70
2018-04-06T01:33:44.438Z,4.55
2018-04-06T01:34:49.025Z,5.10
2018-04-06T01:35:54.107Z,4.90
2018-04-06T01:36:58.594Z,4.95
2018-04-06T01:38:03.346Z,5.22
2018-04-06T01:39:08.516Z,4.80
2018-04-06T01:40:14.448Z,5.28
2018-04-06T01:41:18.918Z,5.60
2018-04-06T01:42:26.301Z,6.25
2018-04-06T01:43:30.835Z,5.80
2018-04-06T01:44:37.642Z,4.85
2018-04-06T01:45:42.893Z,5.45
2018-04-06T01:46:48.084Z,5.53
2018-04-06T01:47:52.489Z,5.57
2018-04-06T01:48:57.777Z,6.03
2018-04-06T01:50:02.309Z,5.35
2018-04-06T01:51:06.647Z,5.43
2018-04-06T01:52:11.855Z,5.90
2018-04-06T01:53:17.555Z,5.78
2018-04-06T01:54:22.034Z,5.25
2018-04-06T01:55:27.885Z,5.37
2018-04-06T01:56:32.295Z,5.15
2018-04-06T01:57:37.780Z,5.30
2018-04-06T01:58:42.357Z,5.30
2018-04-06T01:59:48.141Z,5.40
2018-04-06T02:00:53.666Z,5.57
2018-04-06T02:01:58.584Z,4.75
2018-04-06T02:03:03.208Z,4.70
2018-04-06T02:04:07.663Z,5.03
2018-04-06T02:05:12.850Z,4.43
2018-04-06T02:06:17.976Z,4.70
2018-04-06T02:07:22.938Z,4.55
2018-04-06T02:08:29.668Z,5.00
2018-04-06T02:09:34.879Z,4.50
2018-04-06T02:10:49.908Z,4.40
2018-04-06T02:11:57.831Z,5.07
2018-04-06T02:13:08.309Z,6.10
2018-04-06T02:14:13.759Z,5.10
2018-04-06T02:15:18.812Z,5.75
2018-04-06T02:16:27.182Z,5.15
2018-04-06T02:17:34.907Z,5.55
2018-04-06T02:18:41.831Z,5.65
2018-04-06T02:19:47.063Z,5.10
2018-04-06T02:20:52.543Z,5.07
2018-04-06T02:21:57.803Z,5.60
2018-04-06T02:23:02.240Z,5.35
2018-04-06T02:24:06.816Z,5.10
2018-04-06T02:25:11.696Z,5.10
2018-04-06T02:26:16.689Z,6.30
2018-04-06T02:27:22.375Z,5.30
2018-04-06T02:28:27.636Z,5.75
2018-04-06T02:29:32.260Z,4.97
2018-04-06T02:30:37.486Z,10.95
2018-04-06T02:31:41.862Z,10.70
2018-04-06T02:32:46.397Z,7.85
2018-04-06T02:33:50.791Z,6.60
2018-04-06T02:34:55.501Z,6.18
2018-04-06T02:36:02.561Z,5.50
2018-04-06T02:37:07.538Z,5.50
2018-04-06T02:38:12.996Z,6.50
2018-04-06T02:39:18.340Z,4.78
2018-04-06T02:40:22.796Z,5.20
2018-04-06T02:41:27.176Z,5.00
2018-04-06T02:42:31.546Z,4.75
2018-04-06T02:43:35.933Z,5.05
2018-04-06T02:44:42.409Z,5.20
2018-04-06T02:45:47.420Z,4.78
2018-04-06T02:46:53.578Z,4.62
2018-04-06T02:47:58.630Z,5.05
2018-04-06T02:49:04.770Z,4.78
2018-04-06T02:50:09.513Z,4.95
2018-04-06T02:51:14.637Z,6.20
2018-04-06T02:52:19.583Z,12.43
2018-04-06T02:53:25.668Z,12.23
2018-04-06T02:54:29.968Z,8.18
2018-04-06T02:55:34.583Z,7.43
2018-04-06T02:56:40.391Z,5.82
2018-04-06T02:57:44.720Z,6.30
2018-04-06T02:58:50.630Z,5.60
2018-04-06T02:59:55.301Z,5.68
2018-04-06T03:00:59.585Z,5.15
2018-04-06T03:02:05.566Z,6.05
2018-04-06T03:03:10.608Z,5.13
2018-04-06T03:04:14.969Z,4.97
2018-04-06T03:05:22.043Z,4.32
2018-04-06T03:06:28.505Z,3.70
2018-04-06T03:07:33.836Z,4.97
2018-04-06T03:08:38.981Z,4.28
2018-04-06T03:09:44.149Z,4.87
2018-04-06T03:10:48.772Z,4.70
2018-04-06T03:11:53.149Z,4.68
2018-04-06T03:12:59.327Z,5.55
2018-04-06T03:14:04.278Z,6.40
2018-04-06T03:15:10.385Z,6.50
2018-04-06T03:16:14.860Z,6.60
2018-04-06T03:17:20.144Z,6.28
2018-04-06T03:18:24.764Z,5.80
2018-04-06T03:19:29.066Z,6.28
2018-04-06T03:20:33.387Z,6.25
2018-04-06T03:21:39.971Z,5.60
2018-04-06T03:22:44.273Z,6.12
2018-04-06T03:23:48.932Z,5.95
2018-04-06T03:24:53.751Z,6.03
2018-04-06T03:25:59.407Z,5.87
2018-04-06T03:27:04.207Z,5.20
2018-04-06T03:28:08.730Z,5.00
2018-04-06T03:29:14.047Z,5.53
2018-04-06T03:30:18.413Z,4.62
2018-04-06T03:31:22.892Z,40.42
2018-04-06T03:32:27.490Z,68.77
2018-04-06T03:33:32.715Z,21.62
2018-04-06T03:34:37.760Z,8.27
2018-04-06T03:35:42.054Z,6.15
2018-04-06T03:36:46.453Z,4.60
2018-04-06T03:37:51.576Z,5.35
2018-04-06T03:38:55.905Z,4.62
2018-04-06T03:40:00.544Z,5.60
2018-04-06T03:41:05.677Z,4.40
2018-04-06T03:42:10.835Z,4.63
2018-04-06T03:43:15.210Z,5.20
2018-04-06T03:44:21.402Z,5.20
2018-04-06T03:45:25.749Z,4.72
2018-04-06T03:46:33.921Z,5.40
2018-04-06T03:47:38.216Z,5.90
2018-04-06T03:48:42.797Z,6.43
2018-04-06T03:49:47.408Z,5.50
2018-04-06T03:50:52.853Z,5.12
2018-04-06T03:51:57.237Z,5.45
2018-04-06T03:53:02.687Z,5.30
2018-04-06T03:54:08.513Z,4.72
2018-04-06T03:55:13.612Z,4.90
2018-04-06T03:56:17.868Z,3.80
2018-04-06T03:57:22.140Z,4.90
2018-04-06T03:58:26.408Z,4.57
2018-04-06T03:59:30.762Z,4.53
2018-04-06T04:00:36.807Z,4.95
2018-04-06T04:01:41.895Z,5.30
2018-04-06T04:02:48.141Z,5.15
2018-04-06T04:03:53.293Z,4.53
2018-04-06T04:04:57.581Z,4.85
2018-04-06T04:06:01.853Z,4.97
2018-04-06T04:07:06.512Z,4.70
2018-04-06T04:08:10.794Z,4.87
2018-04-06T04:09:15.078Z,5.37
2018-04-06T04:10:20.754Z,4.70
2018-04-06T04:11:25.276Z,5.05
2018-04-06T04:12:30.109Z,4.82
2018-04-06T04:13:34.492Z,58.43
2018-04-06T04:14:38.954Z,36.97
2018-04-06T04:15:44.070Z,16.80
2018-04-06T04:16:49.723Z,10.23
2018-04-06T04:17:54.520Z,5.85
2018-04-06T04:18:58.857Z,5.30
2018-04-06T04:20:03.414Z,5.00
2018-04-06T04:21:07.738Z,4.75
2018-04-06T04:22:12.275Z,5.30
2018-04-06T04:23:18.388Z,6.00
2018-04-06T04:24:22.810Z,5.65
2018-04-06T04:25:27.626Z,5.90
2018-04-06T04:26:32.241Z,6.47
2018-04-06T04:27:36.680Z,7.50
2018-04-06T04:28:41.875Z,7.15
2018-04-06T04:29:46.769Z,7.80
2018-04-06T04:30:51.376Z,6.60
2018-04-06T04:31:55.719Z,6.90
2018-04-06T04:33:03.202Z,7.30
2018-04-06T04:34:08.015Z,7.12
2018-04-06T04:35:13.179Z,6.80
2018-04-06T04:36:18.378Z,6.95
2018-04-06T04:37:22.752Z,6.30
2018-04-06T04:38:27.125Z,6.78
2018-04-06T04:39:32.531Z,6.20
2018-04-06T04:40:37.009Z,7.45
2018-04-06T04:41:41.342Z,6.47
2018-04-06T04:42:45.786Z,6.67
2018-04-06T04:43:51.917Z,6.65
2018-04-06T04:44:57.776Z,6.43
2018-04-06T04:46:02.707Z,7.30
2018-04-06T04:47:07.857Z,7.20
2018-04-06T04:48:12.433Z,7.25
2018-04-06T04:49:17.036Z,7.75
2018-04-06T04:50:22.207Z,8.20
2018-04-06T04:51:27.798Z,8.93
2018-04-06T04:52:33.186Z,7.43
2018-04-06T04:53:38.457Z,7.32
2018-04-06T04:54:44.564Z,6.20
2018-04-06T04:55:51.310Z,6.07
2018-04-06T04:56:58.907Z,6.03
2018-04-06T04:58:04.333Z,6.35
2018-04-06T04:59:09.954Z,6.20
2018-04-06T05:00:14.512Z,6.00
2018-04-06T05:01:19.207Z,7.00
2018-04-06T05:02:24.754Z,6.03
2018-04-06T05:03:29.468Z,5.50
2018-04-06T05:04:34.492Z,6.25
2018-04-06T05:05:40.458Z,6.55
2018-04-06T05:06:48.101Z,5.70
2018-04-06T05:07:52.565Z,6.18
2018-04-06T05:08:58.276Z,6.40
2018-04-06T05:10:03.149Z,6.00
2018-04-06T05:11:08.461Z,6.30
2018-04-06T05:12:15.654Z,6.70
2018-04-06T05:13:23.200Z,6.50
2018-04-06T05:15:16.615Z,5.60
2018-04-06T05:16:24.382Z,5.80
2018-04-06T05:17:32.151Z,7.20
2018-04-06T05:18:38.557Z,8.90
2018-04-06T05:19:43.063Z,9.10
2018-04-06T05:20:48.465Z,8.50
2018-04-06T05:21:55.204Z,7.85
2018-04-06T05:22:59.839Z,6.90
2018-04-06T05:24:06.395Z,6.45
2018-04-06T05:25:11.880Z,6.10
2018-04-06T05:26:16.568Z,6.22
2018-04-06T05:27:21.115Z,5.93
2018-04-06T05:28:26.490Z,6.28
2018-04-06T05:29:32.117Z,5.95
2018-04-06T05:30:37.216Z,6.40
2018-04-06T05:31:42.830Z,6.50
2018-04-06T05:32:47.350Z,5.80
2018-04-06T05:33:52.969Z,5.75
2018-04-06T05:34:57.578Z,6.50
2018-04-06T05:36:02.666Z,6.00
2018-04-06T05:37:07.819Z,6.87
2018-04-06T05:38:14.481Z,6.80
2018-04-06T05:39:19.996Z,6.40
2018-04-06T05:40:25.768Z,7.18
2018-04-06T05:41:31.334Z,6.63
2018-04-06T05:42:36.119Z,5.87
2018-04-06T05:43:41.055Z,6.68
2018-04-06T05:44:46.059Z,6.87
2018-04-06T05:45:51.743Z,7.10
2018-04-06T05:46:57.480Z,6.93
2018-04-06T05:48:02.098Z,6.95
2018-04-06T05:49:07.646Z,6.65
2018-04-06T05:50:12.602Z,6.65
2018-04-06T05:51:19.553Z,7.20
2018-04-06T05:52:25.349Z,7.82
2018-04-06T05:53:31.333Z,6.57
2018-04-06T05:54:36.426Z,6.95
2018-04-06T05:55:42.876Z,7.15
2018-04-06T05:56:47.937Z,6.87
2018-04-06T05:57:53.339Z,8.07
2018-04-06T05:58:59.632Z,7.22
2018-04-06T06:00:06.573Z,7.82
2018-04-06T06:01:11.651Z,7.70
2018-04-06T06:02:17.557Z,7.90
2018-04-06T06:03:23.438Z,8.63
2018-04-06T06:04:28.477Z,8.15
2018-04-06T06:05:33.746Z,7.20
2018-04-06T06:06:39.243Z,8.45
2018-04-06T06:07:44.360Z,8.35
2018-04-06T06:08:49.630Z,8.35
2018-04-06T06:09:54.859Z,8.38
2018-04-06T06:10:59.576Z,8.80
2018-04-06T06:12:04.497Z,9.60
2018-04-06T06:13:10.793Z,9.30
2018-04-06T06:14:17.157Z,8.38
2018-04-06T06:15:22.275Z,8.13
2018-04-06T06:16:28.106Z,7.47
2018-04-06T06:17:34.582Z,8.02
2018-04-06T06:18:40.263Z,7.82
2018-04-06T06:19:45.535Z,7.95
2018-04-06T06:20:52.630Z,7.57
2018-04-06T06:21:57.815Z,6.65
2018-04-06T06:23:02.453Z,7.57
2018-04-06T06:24:08.451Z,7.03
2018-04-06T06:25:13.632Z,8.07
2018-04-06T06:26:19.619Z,8.50
2018-04-06T06:27:24.548Z,8.57
2018-04-06T06:28:30.158Z,7.82
2018-04-06T06:29:36.403Z,8.05
2018-04-06T06:30:41.504Z,7.35
2018-04-06T06:31:47.695Z,8.50
2018-04-06T06:32:53.147Z,8.23
2018-04-06T06:33:58.378Z,7.62
2018-04-06T06:35:03.741Z,7.68
2018-04-06T06:36:12.126Z,7.78
2018-04-06T06:37:17.768Z,7.60
2018-04-06T06:38:24.939Z,7.70
2018-04-06T06:39:30.349Z,7.37
2018-04-06T06:40:36.165Z,7.30
2018-04-06T06:41:42.291Z,7.20
2018-04-06T06:42:49.149Z,7.40
2018-04-06T06:43:56.722Z,7.47
2018-04-06T06:45:03.347Z,7.68
2018-04-06T06:46:09.345Z,6.85
2018-04-06T06:47:15.661Z,7.65
2018-04-06T06:48:21.474Z,6.40
2018-04-06T06:49:26.731Z,7.70
2018-04-06T06:50:33.015Z,8.25
2018-04-06T06:51:40.146Z,7.20
2018-04-06T06:52:45.596Z,7.60
2018-04-06T06:53:50.923Z,7.60
2018-04-06T06:54:58.391Z,6.00
2018-04-06T06:56:04.720Z,6.32
2018-04-06T06:57:10.828Z,6.40
2018-04-06T06:58:16.795Z,6.30
2018-04-06T06:59:24.045Z,12.00
2018-04-06T07:00:29.814Z,9.02
2018-04-06T07:01:36.561Z,8.70
2018-04-06T07:02:41.887Z,6.32
2018-04-06T07:03:47.914Z,7.40
2018-04-06T07:04:54.842Z,7.28
2018-04-06T07:06:00.249Z,6.87
2018-04-06T07:07:06.432Z,8.27
2018-04-06T07:08:11.772Z,9.55
2018-04-06T07:09:18.189Z,7.90
2018-04-06T07:10:26.052Z,8.00
2018-04-06T07:11:31.896Z,7.50
2018-04-06T07:12:37.402Z,7.50
2018-04-06T07:13:42.729Z,7.28
2018-04-06T07:14:48.232Z,6.57
2018-04-06T07:15:54.196Z,6.45
2018-04-06T07:16:59.948Z,7.32
2018-04-06T07:18:05.743Z,6.43
2018-04-06T07:19:12.291Z,6.37
2018-04-06T07:20:18.406Z,6.07
2018-04-06T07:21:23.891Z,7.15
2018-04-06T07:22:31.148Z,7.30
2018-04-06T07:23:36.739Z,6.87
2018-04-06T07:24:44.468Z,6.93
2018-04-06T07:25:49.541Z,6.37
2018-04-06T07:26:55.449Z,7.28
2018-04-06T07:28:00.621Z,6.25
2018-04-06T07:29:06.088Z,7.10
2018-04-06T07:30:11.639Z,7.53
2018-04-06T07:31:18.615Z,5.90
2018-04-06T07:32:24.142Z,5.43
2018-04-06T07:33:30.784Z,5.25
2018-04-06T07:34:38.270Z,7.00
2018-04-06T07:35:44.587Z,6.05
2018-04-06T07:36:50.293Z,28.30
2018-04-06T07:37:55.894Z,11.77
2018-04-06T07:39:01.185Z,6.93
2018-04-06T07:40:07.741Z,6.70
2018-04-06T07:41:13.727Z,6.90
2018-04-06T07:42:19.386Z,23.83
2018-04-06T07:43:25.013Z,12.65
2018-04-06T07:44:31.266Z,6.10
2018-04-06T07:45:37.220Z,6.15
2018-04-06T07:46:42.853Z,7.10
2018-04-06T07:47:49.021Z,6.75
2018-04-06T07:48:54.239Z,5.70
2018-04-06T07:49:59.878Z,5.68
2018-04-06T07:51:05.377Z,6.03
2018-04-06T07:52:10.912Z,5.87
2018-04-06T07:53:16.458Z,5.20
2018-04-06T07:54:22.928Z,4.72
2018-04-06T07:55:29.244Z,4.55
2018-04-06T07:56:34.777Z,5.60
2018-04-06T07:57:40.129Z,5.90
2018-04-06T07:58:46.230Z,5.30
2018-04-06T07:59:51.879Z,6.12
2018-04-06T08:00:58.849Z,5.62
2018-04-06T08:02:05.090Z,5.65
2018-04-06T08:03:11.909Z,4.70
2018-04-06T08:04:18.490Z,5.15
2018-04-06T08:05:23.699Z,4.10
2018-04-06T08:06:47.029Z,4.72
2018-04-06T08:07:52.387Z,5.25
2018-04-06T08:08:58.674Z,5.37
2018-04-06T08:10:03.988Z,4.10
2018-04-06T08:11:10.133Z,5.20
2018-04-06T08:12:15.686Z,5.18
2018-04-06T08:13:21.086Z,4.53
2018-04-06T08:14:27.040Z,4.60
2018-04-06T08:15:34.261Z,4.50
2018-04-06T08:16:41.990Z,4.57
2018-04-06T08:17:47.390Z,4.32
2018-04-06T08:18:52.733Z,5.10
2018-04-06T08:19:59.063Z,5.30
2018-04-06T08:21:05.534Z,4.30
2018-04-06T08:22:11.591Z,4.90
2018-04-06T08:23:18.439Z,4.70
2018-04-06T08:24:24.551Z,4.20
2018-04-06T08:25:32.265Z,4.40
2018-04-06T08:26:38.612Z,4.37
2018-04-06T08:27:45.354Z,5.53
2018-04-06T08:28:50.825Z,4.60
2018-04-06T08:29:57.942Z,3.97
2018-04-06T08:31:04.257Z,5.47
2018-04-06T08:32:09.704Z,5.40
2018-04-06T08:33:15.725Z,9.77
2018-04-06T08:34:21.895Z,6.65
2018-04-06T08:35:27.634Z,4.25
2018-04-06T08:36:35.495Z,4.60
2018-04-06T08:37:40.870Z,3.42
2018-04-06T08:38:47.853Z,4.20
2018-04-06T08:39:54.298Z,4.35
2018-04-06T08:41:00.375Z,4.93
2018-04-06T08:42:05.741Z,4.82
2018-04-06T08:43:13.008Z,4.00
2018-04-06T08:44:21.984Z,4.30
2018-04-06T08:45:28.685Z,3.55
2018-04-06T08:46:34.000Z,4.47
2018-04-06T08:47:39.077Z,4.10
2018-04-06T08:48:45.332Z,4.00
2018-04-06T08:49:50.762Z,4.05
2018-04-06T08:50:56.068Z,3.60
2018-04-06T08:52:01.892Z,4.07
2018-04-06T08:53:07.832Z,4.30
2018-04-06T08:54:13.801Z,3.97
2018-04-06T08:55:18.988Z,4.87
2018-04-06T08:56:25.487Z,6.25
2018-04-06T08:57:31.523Z,4.47
2018-04-06T08:58:37.810Z,4.25
2018-04-06T08:59:46.204Z,3.62
2018-04-06T09:00:52.456Z,2.80
2018-04-06T09:01:59.374Z,3.00
2018-04-06T09:03:04.604Z,3.50
2018-04-06T09:04:10.535Z,3.53
2018-04-06T09:05:17.043Z,3.67
2018-04-06T09:06:22.202Z,4.55
2018-04-06T09:07:30.301Z,2.65
2018-04-06T09:08:35.557Z,3.17
2018-04-06T09:09:43.011Z,2.50
2018-04-06T09:10:49.766Z,2.75
2018-04-06T09:11:56.472Z,2.78
2018-04-06T09:13:04.054Z,2.40
2018-04-06T09:14:10.118Z,2.60
2018-04-06T09:15:16.371Z,2.55
2018-04-06T09:16:25.098Z,2.20
2018-04-06T09:17:34.285Z,2.50
2018-04-06T09:18:42.260Z,3.00
2018-04-06T09:19:49.645Z,2.60
2018-04-06T09:20:58.274Z,2.60
2018-04-06T09:22:07.386Z,2.20
2018-04-06T09:23:14.529Z,2.22
2018-04-06T09:24:21.631Z,2.12
2018-04-06T09:25:28.688Z,2.20
2018-04-06T09:26:36.952Z,2.50
2018-04-06T09:27:44.284Z,2.40
2018-04-06T09:28:52.077Z,2.00
2018-04-06T09:30:01.142Z,2.30
2018-04-06T09:31:07.322Z,2.20
2018-04-06T09:32:12.763Z,2.70
2018-04-06T09:33:18.119Z,2.47
2018-04-06T09:34:23.254Z,2.25
2018-04-06T09:35:30.040Z,2.10
2018-04-06T09:36:37.226Z,2.35
2018-04-06T09:37:42.894Z,2.10
2018-04-06T09:38:48.212Z,2.10
2018-04-06T09:39:53.590Z,3.28
2018-04-06T09:40:58.866Z,2.40
2018-04-06T09:42:04.138Z,2.60
2018-04-06T09:43:09.356Z,6.12
2018-04-06T09:44:16.429Z,6.07
2018-04-06T09:45:21.904Z,2.20
2018-04-06T09:46:28.105Z,2.47
2018-04-06T09:47:33.640Z,1.92
2018-04-06T09:48:38.859Z,1.85
2018-04-06T09:49:44.886Z,2.60
2018-04-06T09:50:50.978Z,2.20
2018-04-06T09:51:57.076Z,1.70
2018-04-06T09:53:03.000Z,2.08
2018-04-06T09:54:10.361Z,2.00
2018-04-06T09:55:16.183Z,1.87
2018-04-06T09:56:21.387Z,2.30
2018-04-06T09:57:30.091Z,2.17
2018-04-06T09:58:35.447Z,1.77
2018-04-06T09:59:40.773Z,1.80
2018-04-06T10:00:46.082Z,1.60
2018-04-06T10:01:55.399Z,1.70
2018-04-06T10:03:03.622Z,2.40
2018-04-06T10:04:08.945Z,2.70
2018-04-06T10:05:14.632Z,1.50
2018-04-06T10:06:21.455Z,2.00
2018-04-06T10:07:27.194Z,2.00
2018-04-06T10:08:33.213Z,2.05
2018-04-06T10:09:38.772Z,2.10
2018-04-06T10:10:45.246Z,1.90
2018-04-06T10:11:51.302Z,1.83
2018-04-06T10:12:57.668Z,1.62
2018-04-06T10:14:03.010Z,1.98
2018-04-06T10:15:08.324Z,1.90
2018-04-06T10:16:13.714Z,2.00
2018-04-06T10:17:18.912Z,2.20
2018-04-06T10:18:24.314Z,2.50
2018-04-06T10:19:29.471Z,2.10
2018-04-06T10:20:34.676Z,1.83
2018-04-06T10:21:43.236Z,2.03
2018-04-06T10:22:50.604Z,1.90
2018-04-06T10:23:57.479Z,2.05
2018-04-06T10:25:04.551Z,2.17
2018-04-06T10:26:11.467Z,1.80
2018-04-06T10:27:17.876Z,1.77
2018-04-06T10:28:24.580Z,1.60
2018-04-06T10:29:32.167Z,1.98
2018-04-06T10:30:41.579Z,1.70
2018-04-06T10:31:47.906Z,2.05
2018-04-06T10:32:54.744Z,1.70
2018-04-06T10:34:01.440Z,2.40
2018-04-06T10:35:08.909Z,1.70
2018-04-06T10:36:16.420Z,1.48
2018-04-06T10:37:27.866Z,1.80
2018-04-06T10:38:35.169Z,2.33
2018-04-06T10:39:42.451Z,1.90
2018-04-06T10:40:50.364Z,1.50
2018-04-06T10:41:58.240Z,1.85
2018-04-06T10:43:05.509Z,1.50
2018-04-06T10:44:11.916Z,2.08
2018-04-06T10:45:17.955Z,2.20
2018-04-06T10:46:25.659Z,1.50
2018-04-06T10:47:32.765Z,1.60
2018-04-06T10:48:39.444Z,2.10
2018-04-06T10:49:46.564Z,1.90
2018-04-06T10:50:52.806Z,1.70
2018-04-06T10:51:59.872Z,1.67
2018-04-06T10:53:09.841Z,1.73
2018-04-06T10:54:16.762Z,1.98
2018-04-06T10:55:24.329Z,2.00
2018-04-06T10:56:30.987Z,2.20
2018-04-06T10:57:38.206Z,2.00
2018-04-06T10:58:45.421Z,2.10
2018-04-06T10:59:52.388Z,2.10
2018-04-06T11:00:59.407Z,1.80
2018-04-06T11:02:07.916Z,1.87
2018-04-06T11:03:16.216Z,2.10
2018-04-06T11:04:24.648Z,2.10
2018-04-06T11:05:32.813Z,2.72
2018-04-06T11:06:40.328Z,2.30
2018-04-06T11:07:47.053Z,2.00
2018-04-06T11:08:54.279Z,1.80
2018-04-06T11:10:01.377Z,2.00
2018-04-06T11:11:09.044Z,2.08
2018-04-06T11:12:16.353Z,2.08
2018-04-06T11:13:23.603Z,1.40
2018-04-06T11:14:34.254Z,1.60
2018-04-06T11:15:41.619Z,1.90
2018-04-06T11:16:47.968Z,1.90
2018-04-06T11:17:54.429Z,1.87
2018-04-06T11:19:00.603Z,1.90
2018-04-06T11:20:07.266Z,1.50
2018-04-06T11:21:14.945Z,2.28
2018-04-06T11:22:21.845Z,2.00
2018-04-06T11:23:32.061Z,2.25
2018-04-06T11:24:42.238Z,1.50
2018-04-06T11:25:51.824Z,1.95
2018-04-06T11:27:00.083Z,19.35
2018-04-06T11:28:10.889Z,3.17
2018-04-06T11:29:18.344Z,2.30
2018-04-06T11:30:24.509Z,1.30
2018-04-06T11:31:30.693Z,1.90
2018-04-06T11:32:37.601Z,1.87
2018-04-06T11:33:43.935Z,1.87
2018-04-06T11:34:52.297Z,2.10
2018-04-06T11:36:13.526Z,1.80
2018-04-06T11:37:21.502Z,2.03
2018-04-06T11:38:28.281Z,2.00
2018-04-06T11:39:36.007Z,2.00
2018-04-06T11:40:45.896Z,2.10
2018-04-06T11:41:52.449Z,2.20
2018-04-06T11:42:59.939Z,2.42
2018-04-06T11:44:06.704Z,5.75
2018-04-06T11:45:13.187Z,4.35
2018-04-06T11:46:20.389Z,7.65
2018-04-06T11:47:27.844Z,4.68
2018-04-06T11:48:35.304Z,2.80
2018-04-06T11:49:42.466Z,3.30
2018-04-06T11:50:49.640Z,2.20
2018-04-06T11:51:56.020Z,2.30
2018-04-06T11:53:04.415Z,2.30
2018-04-06T11:54:11.581Z,2.22
2018-04-06T11:55:18.472Z,2.30
2018-04-06T11:56:26.846Z,2.70
2018-04-06T11:57:34.893Z,2.78
2018-04-06T11:58:42.307Z,9.20
2018-04-06T11:59:50.446Z,2.87
2018-04-06T12:00:58.387Z,3.10
2018-04-06T12:02:04.998Z,3.08
2018-04-06T12:03:14.134Z,2.30
2018-04-06T12:04:22.358Z,2.20
2018-04-06T12:05:32.289Z,2.20
2018-04-06T12:06:40.248Z,2.70
2018-04-06T12:07:51.966Z,2.50
2018-04-06T12:08:59.336Z,9.77
2018-04-06T12:10:08.733Z,19.20
2018-04-06T12:11:15.137Z,20.37
2018-04-06T12:12:23.038Z,25.05
2018-04-06T12:13:32.339Z,30.00
2018-04-06T12:14:39.557Z,14.95
2018-04-06T12:15:47.284Z,15.70
2018-04-06T12:16:57.204Z,24.52
2018-04-06T12:18:06.237Z,37.97
2018-04-06T12:19:13.499Z,32.75
2018-04-06T12:20:22.064Z,28.58
2018-04-06T12:21:31.444Z,25.62
2018-04-06T12:22:38.139Z,27.90
2018-04-06T12:23:46.710Z,22.15
2018-04-06T12:24:55.202Z,19.30
2018-04-06T12:26:04.302Z,37.92
2018-04-06T12:27:11.666Z,30.83
2018-04-06T12:28:22.311Z,22.33
2018-04-06T12:29:37.926Z,16.65
2018-04-06T12:30:47.555Z,7.82
2018-04-06T12:31:56.307Z,24.58
2018-04-06T12:33:04.173Z,13.35
2018-04-06T12:34:13.851Z,13.48
2018-04-06T12:35:20.504Z,16.95
2018-04-06T12:36:29.553Z,12.07
2018-04-06T12:37:38.555Z,8.00
2018-04-06T12:38:46.040Z,7.25
2018-04-06T12:39:52.629Z,7.10
2018-04-06T12:40:59.331Z,7.10
2018-04-06T12:42:06.966Z,3.78
2018-04-06T12:43:15.510Z,3.53
2018-04-06T12:44:26.333Z,4.00
2018-04-06T12:45:38.112Z,2.25
2018-04-06T12:46:45.487Z,2.60
2018-04-06T12:47:52.614Z,2.90
2018-04-06T12:49:00.845Z,2.90
2018-04-06T12:50:08.313Z,5.28
2018-04-06T12:51:15.235Z,11.48
2018-04-06T12:52:27.347Z,16.25
2018-04-06T12:53:35.980Z,18.37
2018-04-06T12:54:43.441Z,16.70
2018-04-06T12:55:50.689Z,10.40
2018-04-06T12:56:59.412Z,29.27
2018-04-06T12:58:07.085Z,17.48
2018-04-06T12:59:14.587Z,16.67
2018-04-06T13:00:20.686Z,15.98
2018-04-06T13:01:26.618Z,13.27
2018-04-06T13:02:34.430Z,15.88
2018-04-06T13:03:42.036Z,17.20
2018-04-06T13:04:51.932Z,8.20
2018-04-06T13:07:28.112Z,30.42
2018-04-06T13:08:38.354Z,8.80
2018-04-06T13:09:44.833Z,5.80
2018-04-06T13:10:51.799Z,7.28
2018-04-06T13:11:58.489Z,17.55
2018-04-06T13:13:05.410Z,12.98
2018-04-06T13:14:10.682Z,7.57
2018-04-06T13:15:20.563Z,5.45
2018-04-06T13:16:26.020Z,5.33
2018-04-06T13:17:34.904Z,5.93
2018-04-06T13:18:42.038Z,5.10
2018-04-06T13:19:48.687Z,4.62
2018-04-06T13:20:56.157Z,4.15
2018-04-06T13:22:03.639Z,2.65
2018-04-06T13:23:10.124Z,3.03
2018-04-06T13:24:16.388Z,2.70
2018-04-06T13:25:22.672Z,2.90
2018-04-06T13:26:29.779Z,2.55
2018-04-06T13:27:35.887Z,2.35
2018-04-06T13:28:41.430Z,2.78
2018-04-06T13:29:49.842Z,3.22
2018-04-06T13:30:55.323Z,3.00
2018-04-06T13:32:02.997Z,2.60
2018-04-06T13:33:09.871Z,2.60
2018-04-06T13:34:16.914Z,2.80
2018-04-06T13:35:23.642Z,2.50
2018-04-06T13:36:33.428Z,2.40
2018-04-06T13:37:38.679Z,2.20
2018-04-06T13:38:44.489Z,2.80
2018-04-06T13:39:51.253Z,2.60
2018-04-06T13:40:56.615Z,2.80
2018-04-06T13:42:05.332Z,2.35
2018-04-06T13:43:11.888Z,2.58
2018-04-06T13:44:19.217Z,2.42
2018-04-06T13:45:24.484Z,2.40
2018-04-06T13:46:30.955Z,2.30
2018-04-06T13:47:38.317Z,2.40
2018-04-06T13:48:43.482Z,5.53
2018-04-06T13:49:49.400Z,9.27
2018-04-06T13:50:54.958Z,5.85
2018-04-06T13:52:00.142Z,58.67
2018-04-06T13:53:05.739Z,22.10
2018-04-06T13:54:11.298Z,10.70
2018-04-06T13:55:16.764Z,13.30
2018-04-06T13:56:22.186Z,11.90
2018-04-06T13:57:27.834Z,11.20
2018-04-06T13:58:34.882Z,9.68
2018-04-06T13:59:40.959Z,13.93
2018-04-06T14:00:46.694Z,6.43
2018-04-06T14:01:52.448Z,5.10
2018-04-06T14:02:59.813Z,8.30
2018-04-06T14:04:05.834Z,12.32
2018-04-06T14:05:11.008Z,16.98
2018-04-06T14:06:17.833Z,9.43
2018-04-06T14:07:24.578Z,9.90
2018-04-06T14:08:32.047Z,12.60
2018-04-06T14:09:41.204Z,16.85
2018-04-06T14:11:30.970Z,12.13
2018-04-06T14:12:36.816Z,4.60
2018-04-06T14:13:42.911Z,4.30
2018-04-06T14:14:49.937Z,5.37
2018-04-06T14:15:57.802Z,3.42
2018-04-06T14:17:05.395Z,6.95
2018-04-06T14:18:11.855Z,3.58
2018-04-06T14:19:19.335Z,4.43
2018-04-06T14:20:24.745Z,3.10
2018-04-06T14:21:30.808Z,4.35
2018-04-06T14:22:36.719Z,3.20
2018-04-06T14:23:43.102Z,2.47
2018-04-06T14:24:48.419Z,2.50
2018-04-06T14:25:53.937Z,2.30
2018-04-06T14:27:00.115Z,3.30
2018-04-06T14:28:06.459Z,4.55
2018-04-06T14:29:11.924Z,6.35
2018-04-06T14:30:20.600Z,5.70
2018-04-06T14:32:45.285Z,11.45
2018-04-06T14:33:51.557Z,16.70
2018-04-06T14:34:56.879Z,10.98
2018-04-06T14:36:02.811Z,25.52
2018-04-06T14:37:08.633Z,18.23
2018-04-06T14:38:14.583Z,18.85
2018-04-06T14:39:21.684Z,21.92
2018-04-06T14:40:26.963Z,22.27
2018-04-06T14:41:32.282Z,16.75
2018-04-06T14:42:37.485Z,12.05
2018-04-06T14:43:42.507Z,16.80
2018-04-06T14:44:47.843Z,17.27
2018-04-06T14:45:52.976Z,16.98
2018-04-06T14:46:58.150Z,14.13
2018-04-06T14:48:04.068Z,8.50
2018-04-06T14:49:09.300Z,6.60